DXXX

Lomé-Tokoin Airport

Lomé, Togo
METAR DXXX 160500Z 27005KT 9999 FEW012 27/25 Q1013 NOSIG
Observed Flight Rules
Dec-16 @ 05:00 UTC (51 minutes ago) Visual Flight Rules
Wind Visibility Clouds
270° at 5 knots 10,000+ meters
  • Few at 1,200' AGL
Temperatures Readings
Current 27°C / 81°F
Dewpoint 25°C / 77°F
Humidity 89%
Altimeter 29.91" Hg
Pressure 1013 hPa
Elevation 25
METAR DXXX 160500Z 27005KT 9999 FEW012 27/25 Q1013 NOSIG
Observed Flight Rules
Dec-16 @ 05:00 UTC
(51 minutes ago)
VFR
Wind Visibility
270° at 5 knots 10,000+ meters
Clouds
  • Few at 1,200' AGL
Temperature Dewpoint
27°C / 81°F 25°C / 77°F
Humidity Altimeter Pressure
89% 29.91" Hg 1013 hPa